createdAt,value
2017-08-19T00:00:03.178Z,12.6
2017-08-19T00:05:02.629Z,12.8
2017-08-19T00:10:03.245Z,12.5
2017-08-19T00:15:02.753Z,12.6
2017-08-19T00:20:03.194Z,12.6
2017-08-19T00:25:02.713Z,12.6
2017-08-19T00:30:03.168Z,12.6
2017-08-19T00:35:02.691Z,12.5
2017-08-19T00:40:03.128Z,12.5
2017-08-19T00:45:02.684Z,12.3
2017-08-19T00:50:03.105Z,12.5
2017-08-19T00:55:02.593Z,12.3
2017-08-19T01:00:02.997Z,12.5
2017-08-19T01:05:02.526Z,12.3
2017-08-19T01:10:03.131Z,12.3
2017-08-19T01:15:02.655Z,12.3
2017-08-19T01:20:03.247Z,12.5
2017-08-19T01:25:02.647Z,12.5
2017-08-19T01:30:03.115Z,12.5
2017-08-19T01:35:02.598Z,12.3
2017-08-19T01:40:03.184Z,12.3
2017-08-19T01:45:02.698Z,12.3
2017-08-19T01:50:03.164Z,12.3
2017-08-19T01:55:02.861Z,12.3
2017-08-19T02:00:03.270Z,12.3
2017-08-19T02:05:02.691Z,12.3
2017-08-19T02:10:03.340Z,12.3
2017-08-19T02:15:02.845Z,12.1
2017-08-19T02:20:03.275Z,12.1
2017-08-19T02:25:02.833Z,12.3
2017-08-19T02:30:03.311Z,12.3
2017-08-19T02:35:02.694Z,12.1
2017-08-19T02:40:03.269Z,12.1
2017-08-19T02:45:02.677Z,12.1
2017-08-19T02:50:03.247Z,12.1
2017-08-19T02:55:02.657Z,12.1
2017-08-19T03:00:03.165Z,12.1
2017-08-19T03:05:02.555Z,12.1
2017-08-19T03:10:03.134Z,12.1
2017-08-19T03:15:02.630Z,12.1
2017-08-19T03:20:03.245Z,12.1
2017-08-19T03:25:02.596Z,12.1
2017-08-19T03:30:03.065Z,12.0
2017-08-19T03:35:02.585Z,12.0
2017-08-19T03:40:03.052Z,12.0
2017-08-19T03:45:02.459Z,12.0
2017-08-19T03:50:03.099Z,12.0
2017-08-19T03:55:02.523Z,11.8
2017-08-19T04:00:02.923Z,12.0
2017-08-19T04:05:02.801Z,12.0
2017-08-19T04:10:03.330Z,12.0
2017-08-19T04:15:02.888Z,12.1
2017-08-19T04:20:02.463Z,12.0
2017-08-19T04:25:03.016Z,12.1
2017-08-19T04:30:02.945Z,12.1
2017-08-19T04:35:02.396Z,12.0
2017-08-19T04:40:03.021Z,12.1
2017-08-19T04:45:02.567Z,12.1
2017-08-19T04:50:03.141Z,12.1
2017-08-19T04:55:02.542Z,12.1
2017-08-19T05:00:03.057Z,12.3
2017-08-19T05:05:02.526Z,12.5
2017-08-19T05:10:02.985Z,12.6
2017-08-19T05:15:02.471Z,12.6
2017-08-19T05:20:02.912Z,12.8
2017-08-19T05:25:03.345Z,12.8
2017-08-19T05:30:02.879Z,12.8
2017-08-19T05:35:03.322Z,12.8
2017-08-19T05:40:02.884Z,12.8
2017-08-19T05:45:02.450Z,13.1
2017-08-19T05:50:02.881Z,13.1
2017-08-19T05:55:03.271Z,13.1
2017-08-19T06:00:02.691Z,13.1
2017-08-19T06:05:03.277Z,13.1
2017-08-19T06:10:02.773Z,13.3
2017-08-19T06:15:03.375Z,13.3
2017-08-19T06:20:02.800Z,13.3
2017-08-19T06:25:03.166Z,13.5
2017-08-19T06:30:02.555Z,13.5
2017-08-19T06:35:02.964Z,13.6
2017-08-19T06:40:02.567Z,13.6
2017-08-19T06:45:03.173Z,13.6
2017-08-19T06:50:02.662Z,14.1
2017-08-19T06:55:03.233Z,14.0
2017-08-19T07:00:02.932Z,14.0
2017-08-19T07:05:02.565Z,14.0
2017-08-19T07:10:03.031Z,14.0
2017-08-19T07:15:02.434Z,14.3
2017-08-19T07:20:02.897Z,14.5
2017-08-19T07:25:03.292Z,14.5
2017-08-19T07:30:02.891Z,14.8
2017-08-19T07:35:02.456Z,14.5
2017-08-19T07:40:02.998Z,14.8
2017-08-19T07:45:02.511Z,15.1
2017-08-19T07:50:03.121Z,15.3
2017-08-19T07:55:02.555Z,15.1
2017-08-19T08:00:03.064Z,15.8
2017-08-19T08:05:02.689Z,15.6
2017-08-19T08:10:02.436Z,15.5
2017-08-19T08:15:02.825Z,15.3
2017-08-19T08:20:03.344Z,15.3
2017-08-19T08:25:02.782Z,15.6
2017-08-19T08:30:02.358Z,16.7
2017-08-19T08:35:02.952Z,16.7
2017-08-19T08:40:02.435Z,16.6
2017-08-19T08:45:02.867Z,16.7
2017-08-19T08:50:02.393Z,16.2
2017-08-19T08:55:02.829Z,16.6
2017-08-19T09:00:03.229Z,16.2
2017-08-19T09:05:02.665Z,16.2
2017-08-19T09:10:03.334Z,16.7
2017-08-19T09:15:02.985Z,17.2
2017-08-19T09:20:02.429Z,17.5
2017-08-19T09:25:03.030Z,17.5
2017-08-19T09:30:02.570Z,16.7
2017-08-19T09:35:03.181Z,16.7
2017-08-19T09:40:02.684Z,16.2
2017-08-19T09:45:03.258Z,16.7
2017-08-19T09:50:02.674Z,17.5
2017-08-19T09:55:03.252Z,17.7
2017-08-19T10:00:02.802Z,17.1
2017-08-19T10:05:03.230Z,17.2
2017-08-19T10:10:02.833Z,18.1
2017-08-19T10:20:02.745Z,17.7
2017-08-19T10:25:03.166Z,17.8
2017-08-19T10:30:02.759Z,18.5
2017-08-19T10:35:03.185Z,18.7
2017-08-19T10:40:02.697Z,18.6
2017-08-19T10:45:03.162Z,18.6
2017-08-19T10:50:02.823Z,18.5
2017-08-19T10:55:02.395Z,18.5
2017-08-19T11:00:02.934Z,19.1
2017-08-19T11:05:02.611Z,19.1
2017-08-19T11:10:03.230Z,18.6
2017-08-19T11:15:02.799Z,18.2
2017-08-19T11:20:03.238Z,18.1
2017-08-19T11:25:02.681Z,17.5
2017-08-19T11:30:03.141Z,17.3
2017-08-19T11:35:02.573Z,18.8
2017-08-19T11:40:03.189Z,18.8
2017-08-19T11:45:02.830Z,19.7
2017-08-19T11:50:03.265Z,20.6
2017-08-19T11:55:02.761Z,20.7
2017-08-19T12:00:03.345Z,20.8
2017-08-19T12:05:02.940Z,20.7
2017-08-19T12:10:02.601Z,19.2
2017-08-19T12:15:03.005Z,19.1
2017-08-19T12:20:02.560Z,19.1
2017-08-19T12:25:03.178Z,18.5
2017-08-19T12:30:02.730Z,16.0
2017-08-19T12:35:03.210Z,15.1
2017-08-19T12:40:02.773Z,15.0
2017-08-19T12:45:03.307Z,15.1
2017-08-19T12:50:02.723Z,15.0
2017-08-19T12:55:03.178Z,15.1
2017-08-19T13:00:02.577Z,15.0
2017-08-19T13:05:03.074Z,15.1
2017-08-19T13:10:02.688Z,15.3
2017-08-19T13:15:03.053Z,15.5
2017-08-19T13:20:02.641Z,15.8
2017-08-19T13:25:03.309Z,15.8
2017-08-19T13:30:02.916Z,15.8
2017-08-19T13:35:02.472Z,16.2
2017-08-19T13:40:03.086Z,20.1
2017-08-19T13:45:02.678Z,18.1
2017-08-19T13:50:03.291Z,18.1
2017-08-19T13:55:02.822Z,20.1
2017-08-19T14:00:02.376Z,20.6
2017-08-19T14:05:02.823Z,20.2
2017-08-19T14:10:02.384Z,20.7
2017-08-19T14:15:02.830Z,20.7
2017-08-19T14:20:02.405Z,21.3
2017-08-19T14:25:02.862Z,21.2
2017-08-19T14:30:02.507Z,21.6
2017-08-19T14:40:02.843Z,20.2
2017-08-19T14:45:02.439Z,19.7
2017-08-19T14:50:03.083Z,19.2
2017-08-19T14:55:02.542Z,19.7
2017-08-19T15:00:03.006Z,19.3
2017-08-19T15:05:02.582Z,19.5
2017-08-19T15:10:03.051Z,20.1
2017-08-19T15:15:02.621Z,19.1
2017-08-19T15:20:03.119Z,20.2
2017-08-19T15:25:02.517Z,20.8
2017-08-19T15:30:02.978Z,19.7
2017-08-19T15:35:02.554Z,19.2
2017-08-19T15:40:02.994Z,19.1
2017-08-19T15:45:02.433Z,19.1
2017-08-19T15:50:03.073Z,19.2
2017-08-19T15:55:02.642Z,19.2
2017-08-19T16:00:03.238Z,20.2
2017-08-19T16:05:02.704Z,20.2
2017-08-19T16:10:02.386Z,19.2
2017-08-19T16:15:02.772Z,19.0
2017-08-19T16:20:03.237Z,20.2
2017-08-19T16:25:02.811Z,20.8
2017-08-19T16:30:03.249Z,19.7
2017-08-19T16:35:02.867Z,19.2
2017-08-19T16:40:02.557Z,20.1
2017-08-19T16:45:03.149Z,21.0
2017-08-19T16:50:02.723Z,20.6
2017-08-19T16:55:03.337Z,21.2
2017-08-19T17:00:02.902Z,21.2
2017-08-19T17:05:03.344Z,21.0
2017-08-19T17:10:02.943Z,20.2
2017-08-19T17:15:02.496Z,20.2
2017-08-19T17:20:03.147Z,20.0
2017-08-19T17:25:02.593Z,20.1
2017-08-19T17:30:03.202Z,20.1
2017-08-19T17:35:02.625Z,20.2
2017-08-19T17:40:03.132Z,19.7
2017-08-19T17:45:02.540Z,19.5
2017-08-19T17:50:03.000Z,19.2
2017-08-19T17:55:02.581Z,19.2
2017-08-19T18:00:02.984Z,19.0
2017-08-19T18:05:02.438Z,18.5
2017-08-19T18:10:02.886Z,17.8
2017-08-19T18:15:03.357Z,17.5
2017-08-19T18:20:02.972Z,17.3
2017-08-19T18:25:02.532Z,17.2
2017-08-19T18:30:02.983Z,17.0
2017-08-19T18:35:02.489Z,16.7
2017-08-19T18:40:02.999Z,16.7
2017-08-19T18:45:02.593Z,16.3
2017-08-19T18:50:03.027Z,16.3
2017-08-19T18:55:02.626Z,16.2
2017-08-19T19:00:03.201Z,16.2
2017-08-19T19:05:02.613Z,16.2
2017-08-19T19:10:03.053Z,15.8
2017-08-19T19:15:02.499Z,15.6
2017-08-19T19:20:02.920Z,15.6
2017-08-19T19:25:02.472Z,15.5
2017-08-19T19:30:03.067Z,15.5
2017-08-19T19:35:02.646Z,15.5
2017-08-19T19:40:03.264Z,15.3
2017-08-19T19:45:02.846Z,15.3
2017-08-19T19:50:02.426Z,15.3
2017-08-19T19:55:02.944Z,15.5
2017-08-19T20:00:02.337Z,15.5
2017-08-19T20:05:02.929Z,15.5
2017-08-19T20:10:02.372Z,15.5
2017-08-19T20:15:02.845Z,15.5
2017-08-19T20:20:03.385Z,15.6
2017-08-19T20:25:02.963Z,15.5
2017-08-19T20:30:02.624Z,15.6
2017-08-19T20:35:03.312Z,15.5
2017-08-19T20:40:02.797Z,15.5
2017-08-19T20:45:02.384Z,15.1
2017-08-19T20:50:02.926Z,15.1
2017-08-19T20:55:02.448Z,15.1
2017-08-19T21:00:02.953Z,15.1
2017-08-19T21:05:02.570Z,14.8
2017-08-19T21:10:03.217Z,14.6
2017-08-19T21:15:02.600Z,14.5
2017-08-19T21:20:03.162Z,14.3
2017-08-19T21:25:02.993Z,14.3
2017-08-19T21:30:02.425Z,14.3
2017-08-19T21:35:02.973Z,14.0
2017-08-19T21:40:02.380Z,13.8
2017-08-19T21:45:02.826Z,13.6
2017-08-19T21:50:02.436Z,13.6
2017-08-19T21:55:03.017Z,13.6
2017-08-19T22:00:02.388Z,13.5
2017-08-19T22:05:02.901Z,13.6
2017-08-19T22:10:02.423Z,13.6
2017-08-19T22:15:02.898Z,13.6
2017-08-19T22:20:02.442Z,13.6
2017-08-19T22:25:02.816Z,13.8
2017-08-19T22:30:03.189Z,13.8
2017-08-19T22:35:02.769Z,13.8
2017-08-19T22:40:02.394Z,13.8
2017-08-19T22:45:02.930Z,14.0
2017-08-19T22:50:02.504Z,14.0
2017-08-19T22:55:02.928Z,14.0
2017-08-19T23:00:03.542Z,14.0
2017-08-19T23:05:03.312Z,14.0
2017-08-19T23:10:02.926Z,13.8
2017-08-19T23:15:03.335Z,13.8
2017-08-19T23:20:02.940Z,14.0
2017-08-19T23:25:02.480Z,14.0
2017-08-19T23:30:02.998Z,14.3
2017-08-19T23:40:03.164Z,14.0
2017-08-19T23:45:02.697Z,13.8
2017-08-19T23:50:03.187Z,13.6
2017-08-19T23:55:02.789Z,13.6
